Time;durP1;ratioP1;P1;durP2;ratioP2;P2;SDS_P1;SDS_P2;PMS_P1;PMS_P2;Temp;Humidity;BMP_temperature;BMP_pressure;BME280_temperature;BME280_humidity;BME280_pressure;Samples;Min_cycle;Max_cycle;Signal;HPM_P1;HPM_P2
2021/11/01 00:00:58;;;;;;;15.72;11.48;;;;;;;11.32;93.34;101270.09;1713346;82;21002;-68
2021/11/01 00:03:24;;;;;;;;;;;;;;;11.30;92.33;101264.23;1711861;82;20938;-67
2021/11/01 00:05:51;;;;;;;16.05;10.32;;;;;;;10.89;95.69;101265.48;1699419;82;21133;-68
2021/11/01 00:08:18;;;;;;;16.70;10.75;;;;;;;10.59;98.29;101258.23;1693280;82;21073;-67
2021/11/01 00:10:44;;;;;;;17.92;9.93;;;;;;;10.65;98.53;101253.22;1689945;82;20974;-68
2021/11/01 00:13:11;;;;;;;15.23;10.58;;;;;;;10.66;99.77;101256.63;1693995;82;21021;-68
2021/11/01 00:15:38;;;;;;;17.07;11.12;;;;;;;10.68;100.00;101253.36;1687725;82;21048;-70
2021/11/01 00:18:05;;;;;;;19.48;12.18;;;;;;;10.66;99.73;101254.02;1699619;82;21160;-69
2021/11/01 00:20:32;;;;;;;16.23;11.08;;;;;;;10.66;99.37;101254.02;1701450;82;21064;-68
2021/11/01 00:22:59;;;;;;;18.52;11.90;;;;;;;10.55;100.00;101251.71;1700236;82;20950;-69
2021/11/01 00:25:26;;;;;;;17.25;11.55;;;;;;;10.48;100.00;101259.34;1697771;82;20946;-69
2021/11/01 00:27:52;;;;;;;19.00;11.18;;;;;;;10.50;100.00;101257.89;1686704;82;20954;-70
2021/11/01 00:30:20;;;;;;;19.20;12.68;;;;;;;10.51;100.00;101250.39;1701390;82;21145;-69
2021/11/01 00:32:48;;;;;;;17.20;11.03;;;;;;;10.47;100.00;101252.50;1700098;82;20915;-69
2021/11/01 00:35:14;;;;;;;19.20;11.73;;;;;;;10.53;100.00;101248.44;1684334;82;20997;-68
2021/11/01 00:37:41;;;;;;;18.52;11.90;;;;;;;10.55;100.00;101248.61;1700205;82;20986;-68
2021/11/01 00:40:09;;;;;;;22.40;11.43;;;;;;;10.41;100.00;101250.02;1682822;82;20986;-67
2021/11/01 00:42:36;;;;;;;15.93;10.65;;;;;;;10.52;100.00;101250.23;1698934;82;21148;-66
2021/11/01 00:45:05;;;;;;;16.30;10.95;;;;;;;10.35;100.00;101249.86;1700509;82;20946;-67
2021/11/01 00:47:31;;;;;;;18.20;10.98;;;;;;;10.54;100.00;101248.78;1701793;82;21487;-67
2021/11/01 00:49:59;;;;;;;17.95;11.65;;;;;;;10.80;99.66;101250.80;1698737;82;21012;-68
2021/11/01 00:52:26;;;;;;;17.10;10.05;;;;;;;10.84;98.90;101252.12;1682107;82;21155;-67
2021/11/01 00:54:59;;;;;;;16.60;10.32;;;;;;;10.91;97.70;101250.50;1698110;82;21169;-67
2021/11/01 00:57:22;;;;;;;16.65;10.68;;;;;;;10.94;94.81;101251.95;1681081;82;21017;-67
2021/11/01 00:59:48;;;;;;;18.77;10.45;;;;;;;10.71;98.47;101245.23;1699413;82;20934;-69
2021/11/01 01:02:15;;;;;;;15.70;9.80;;;;;;;10.75;97.65;101243.93;1700731;82;20961;-67
2021/11/01 01:04:41;;;;;;;18.87;11.30;;;;;;;10.67;100.00;101242.61;1707935;82;22173;-67
2021/11/01 01:07:08;;;;;;;22.77;11.97;;;;;;;10.71;100.00;101239.52;1710999;82;21173;-67
2021/11/01 01:09:35;;;;;;;19.00;10.68;;;;;;;10.62;100.00;101235.27;1693419;82;20910;-68
2021/11/01 01:12:02;;;;;;;19.57;11.40;;;;;;;10.66;100.00;101237.08;1709205;82;20965;-69
2021/11/01 01:14:30;;;;;;;15.58;10.05;;;;;;;10.79;100.00;101236.60;1690457;82;21066;-68
2021/11/01 01:17:00;;;;;;;16.85;10.30;;;;;;;10.41;100.00;101236.98;1709617;82;21075;-67
2021/11/01 01:19:32;;;;;;;15.98;10.75;;;;;;;10.72;100.00;101231.23;1711227;82;21915;-69
2021/11/01 01:22:19;;;;;;;15.70;10.72;;;;;;;10.81;100.00;101237.27;1708330;82;20942;-68
2021/11/01 01:24:41;;;;;;;15.30;10.68;;;;;;;10.79;100.00;101234.81;1709583;82;21057;-68
2021/11/01 01:27:07;;;;;;;16.87;10.58;;;;;;;10.85;100.00;101226.84;1700866;82;21022;-67
2021/11/01 01:29:34;;;;;;;14.33;10.10;;;;;;;11.09;100.00;101225.55;1704695;82;20997;-69
2021/11/01 01:32:00;;;;;;;14.90;9.90;;;;;;;11.28;100.00;101224.91;1708841;82;21112;-67
2021/11/01 01:34:27;;;;;;;14.05;10.20;;;;;;;11.45;99.59;101224.73;1701659;82;21266;-67
2021/11/01 01:36:53;;;;;;;17.30;10.68;;;;;;;11.54;98.38;101218.20;1702189;82;21634;-67
2021/11/01 01:39:19;;;;;;;15.10;10.05;;;;;;;11.80;94.98;101221.41;1702199;82;21038;-69
2021/11/01 01:41:46;;;;;;;15.85;10.35;;;;;;;11.92;92.02;101208.34;1698108;82;20890;-69
2021/11/01 01:44:13;;;;;;;17.87;10.63;;;;;;;12.08;89.23;101209.27;1710976;82;21138;-67
2021/11/01 01:46:40;;;;;;;14.83;10.75;;;;;;;11.99;89.42;101218.94;1707746;82;21007;-67
2021/11/01 01:49:06;;;;;;;15.60;10.00;;;;;;;11.63;94.46;101218.03;1710820;82;20993;-67
2021/11/01 01:51:34;;;;;;;16.23;10.50;;;;;;;11.81;92.04;101213.89;1699281;82;21116;-68
2021/11/01 01:54:01;;;;;;;15.65;10.10;;;;;;;11.60;94.50;101221.47;1703389;82;21178;-67
2021/11/01 01:56:28;;;;;;;15.55;10.80;;;;;;;11.51;96.65;101222.44;1700099;82;21149;-67
2021/11/01 01:59:02;;;;;;;16.48;10.08;;;;;;;11.62;94.90;101220.80;1700993;82;21044;-67
2021/11/01 02:01:31;;;;;;;17.40;12.07;;;;;;;11.63;95.41;101215.42;1680658;83;21006;-68
2021/11/01 02:03:58;;;;;;;18.62;10.88;;;;;;;11.85;93.52;101215.70;1701455;82;21068;-67
2021/11/01 02:06:47;;;;;;;15.63;10.40;;;;;;;11.38;96.48;101215.12;1711122;82;21005;-67
2021/11/01 02:09:19;;;;;;;14.58;9.98;;;;;;;11.23;100.00;101215.45;1684741;82;21272;-69
2021/11/01 02:12:09;;;;;;;15.70;10.03;;;;;;;11.58;97.12;101204.64;1709770;82;21346;-67
2021/11/01 02:14:53;;;;;;;14.33;10.90;;;;;;;11.85;94.43;101206.56;1710833;82;20966;-69
2021/11/01 02:17:28;;;;;;;14.30;9.98;;;;;;;11.87;94.16;101208.03;1699572;82;21527;-68
2021/11/01 02:19:57;;;;;;;18.10;10.50;;;;;;;12.05;91.31;101207.02;1709845;82;20989;-68
2021/11/01 02:23:04;;;;;;;15.43;10.00;;;;;;;12.21;88.45;101210.86;1710720;82;21205;-67
2021/11/01 02:25:51;;;;;;;15.80;10.95;;;;;;;12.33;87.35;101208.67;1702306;82;20985;-69
2021/11/01 02:28:32;;;;;;;16.10;10.88;;;;;;;12.55;83.28;101200.06;1702845;82;20998;-67
2021/11/01 02:30:59;;;;;;;14.23;10.15;;;;;;;12.65;81.24;101203.27;1709997;82;22016;-67
2021/11/01 02:33:26;;;;;;;19.20;11.22;;;;;;;12.63;80.96;101199.19;1710209;82;21597;-67
2021/11/01 02:35:54;;;;;;;14.15;10.00;;;;;;;12.69;79.86;101197.67;1691888;82;21430;-70
2021/11/01 02:38:24;;;;;;;15.75;10.68;;;;;;;12.55;80.95;101205.78;1693886;83;21372;-67
2021/11/01 02:40:51;;;;;;;15.20;10.08;;;;;;;12.43;82.36;101200.63;1689845;82;21029;-67
2021/11/01 02:43:18;;;;;;;17.15;11.78;;;;;;;12.39;82.47;101198.35;1710636;82;20922;-69
2021/11/01 02:45:45;;;;;;;16.75;11.48;;;;;;;12.18;85.48;101198.93;1708602;82;21024;-67
2021/11/01 02:48:11;;;;;;;18.82;11.28;;;;;;;12.12;87.57;101197.48;1710601;82;21150;-68
2021/11/01 02:50:38;;;;;;;15.75;10.18;;;;;;;12.17;87.18;101186.05;1710881;82;22378;-68
2021/11/01 02:53:06;;;;;;;17.90;11.48;;;;;;;12.12;88.00;101183.11;1691834;82;21040;-70
2021/11/01 02:55:34;;;;;;;18.35;11.80;;;;;;;12.11;88.03;101184.91;1711162;82;21628;-67
2021/11/01 02:58:02;;;;;;;18.37;11.55;;;;;;;12.14;87.79;101174.12;1689501;82;21097;-69
2021/11/01 03:00:30;;;;;;;17.52;10.82;;;;;;;11.76;91.10;101175.71;1710991;82;21166;-68
2021/11/01 03:02:57;;;;;;;16.87;10.72;;;;;;;11.71;94.48;101179.33;1709324;82;21060;-69
2021/11/01 03:05:25;;;;;;;14.55;10.98;;;;;;;11.65;96.29;101177.38;1708727;82;21008;-68
2021/11/01 03:07:54;;;;;;;16.50;11.90;;;;;;;11.52;98.38;101170.07;1710749;82;20945;-68
2021/11/01 03:10:21;;;;;;;17.00;10.53;;;;;;;11.33;100.00;101173.86;1709715;82;21077;-69
2021/11/01 03:12:48;;;;;;;16.65;10.13;;;;;;;11.41;100.00;101171.23;1706360;82;21165;-69
2021/11/01 03:15:28;;;;;;;14.13;10.43;;;;;;;11.47;100.00;101168.92;1709439;83;21046;-68
2021/11/01 03:18:02;;;;;;;16.48;10.93;;;;;;;11.39;100.00;101166.65;1706685;82;21484;-68
2021/11/01 03:20:36;;;;;;;15.08;10.68;;;;;;;11.37;100.00;101171.73;1710062;82;21571;-68
2021/11/01 03:23:10;;;;;;;16.90;10.95;;;;;;;11.31;100.00;101154.92;1708311;82;21123;-68
2021/11/01 03:25:58;;;;;;;17.00;10.63;;;;;;;11.40;100.00;101159.63;1705467;82;21304;-68
2021/11/01 03:28:25;;;;;;;17.87;10.80;;;;;;;11.68;100.00;101148.31;1691111;82;22324;-68
2021/11/01 03:30:53;;;;;;;15.00;10.95;;;;;;;11.64;100.00;101144.41;1705328;82;21087;-68
2021/11/01 03:33:19;;;;;;;18.02;11.22;;;;;;;11.62;100.00;101154.20;1687026;84;21004;-70
2021/11/01 03:35:46;;;;;;;17.10;11.53;;;;;;;11.65;100.00;101148.16;1705783;82;21581;-70
2021/11/01 03:38:13;;;;;;;17.67;11.57;;;;;;;11.69;99.47;101146.02;1664137;84;22283;-70
2021/11/01 03:40:45;;;;;;;18.45;12.33;;;;;;;11.68;99.88;101151.73;1708072;82;21515;-71
2021/11/01 03:43:10;;;;;;;14.55;11.00;;;;;;;11.69;99.86;101151.24;1694903;82;21006;-71
2021/11/01 03:45:38;;;;;;;18.30;11.78;;;;;;;11.79;99.24;101142.73;1701436;82;21642;-69
2021/11/01 03:48:07;;;;;;;19.85;12.13;;;;;;;11.72;98.77;101139.66;1705115;82;21621;-69
2021/11/01 03:50:44;;;;;;;18.17;11.18;;;;;;;11.66;99.54;101141.13;1702018;83;21171;-69
2021/11/01 03:53:08;;;;;;;17.60;12.13;;;;;;;11.65;100.00;101140.81;1707956;82;20983;-69
2021/11/01 03:55:35;;;;;;;16.25;10.98;;;;;;;11.80;99.35;101132.59;1702780;82;20995;-68
2021/11/01 03:58:03;;;;;;;14.25;10.23;;;;;;;11.76;98.29;101133.92;1689510;83;21087;-68
2021/11/01 04:00:33;;;;;;;19.45;11.53;;;;;;;11.88;97.19;101140.42;1712168;82;21209;-69
2021/11/01 04:03:00;;;;;;;21.23;13.43;;;;;;;11.85;97.24;101150.40;1754747;80;21088;-69
2021/11/01 04:05:27;;;;;;;14.45;11.45;;;;;;;11.98;94.91;101142.03;1754834;80;20915;-69
2021/11/01 04:07:54;;;;;;;21.70;11.95;;;;;;;12.10;91.89;101140.16;1751906;80;21001;-69
2021/11/01 04:10:21;;;;;;;19.15;11.65;;;;;;;12.09;90.77;101137.73;1744644;80;21138;-69
2021/11/01 04:12:48;;;;;;;20.02;12.30;;;;;;;12.12;89.15;101132.98;1755187;80;20970;-69
2021/11/01 04:15:19;;;;;;;17.30;11.93;;;;;;;11.92;91.48;101141.71;1755325;80;21095;-69
2021/11/01 04:20:24;;;;;;;16.52;10.95;;;;;;;11.59;95.09;101128.41;1753024;80;20981;-69
2021/11/01 04:22:39;;;;;;;19.62;12.33;;;;;;;11.53;96.70;101130.41;1751929;80;20973;-68
2021/11/01 04:25:06;;;;;;;19.48;12.58;;;;;;;11.57;96.58;101128.59;1752229;80;21511;-68
2021/11/01 04:27:33;;;;;;;17.87;11.75;;;;;;;11.60;96.97;101123.53;1753386;80;21146;-68
2021/11/01 04:30:01;;;;;;;18.67;11.70;;;;;;;11.75;96.24;101124.46;1737989;80;20990;-72
2021/11/01 04:32:39;;;;;;;22.15;12.93;;;;;;;11.86;94.69;101121.51;1747041;80;22384;-66
2021/11/01 04:35:24;;;;;;;18.23;12.18;;;;;;;11.66;96.18;101120.23;1743088;80;21515;-64
2021/11/01 04:37:42;;;;;;;17.92;11.15;;;;;;;11.55;98.69;101120.10;1742919;80;20958;-68
2021/11/01 04:53:31;;;;;;;21.65;11.60;;;;;;;11.84;97.93;101118.23;1742935;80;22410;-64
2021/11/01 04:55:58;;;;;;;24.10;12.88;;;;;;;11.95;96.90;101118.36;1736611;80;20952;-64
2021/11/01 04:58:25;;;;;;;22.42;13.08;;;;;;;11.93;96.50;101114.63;1737042;80;21166;-65
2021/11/01 05:00:52;;;;;;;20.80;12.85;;;;;;;11.94;96.12;101115.44;1737382;80;21002;-75
2021/11/01 05:05:50;;;;;;;21.17;12.30;;;;;;;11.93;96.65;101109.86;1731403;80;21146;-72
2021/11/01 05:08:20;;;;;;;19.87;12.88;;;;;;;12.00;95.31;101112.12;1723237;80;21099;-65
2021/11/01 05:10:49;;;;;;;18.32;12.50;;;;;;;12.23;92.22;101115.27;1730723;80;20957;-63
2021/11/01 05:13:18;;;;;;;19.42;12.75;;;;;;;12.11;92.90;101105.70;1719746;80;21040;-65
2021/11/01 05:15:57;;;;;;;17.80;11.65;;;;;;;12.15;93.54;101105.67;1735802;80;21057;-69
2021/11/01 05:21:20;;;;;;;18.25;11.68;;;;;;;12.19;92.61;101110.87;1731848;80;21092;-66
2021/11/01 05:23:39;;;;;;;17.85;11.73;;;;;;;12.19;93.49;101104.34;1729861;80;21005;-65
2021/11/01 05:26:08;;;;;;;18.55;10.88;;;;;;;12.36;92.24;101108.48;1737439;80;21326;-66
2021/11/01 05:28:46;;;;;;;18.20;12.03;;;;;;;12.22;94.31;101106.61;1733896;80;20930;-70
2021/11/01 05:31:19;;;;;;;15.68;11.25;;;;;;;12.30;92.90;101100.02;1729370;80;21113;-62
2021/11/01 05:33:52;;;;;;;16.15;11.22;;;;;;;12.32;94.73;101100.67;1743606;80;21065;-66
2021/11/01 05:36:13;;;;;;;17.05;10.18;;;;;;;12.20;96.31;101101.23;1734668;80;21465;-68
2021/11/01 05:38:39;;;;;;;20.12;10.75;;;;;;;12.45;93.45;101099.27;1737208;80;21016;-64
2021/11/01 05:41:06;;;;;;;17.52;10.82;;;;;;;12.72;90.67;101093.50;1721790;80;20957;-75
2021/11/01 05:43:33;;;;;;;18.50;11.40;;;;;;;12.81;89.62;101096.38;1716554;80;21076;-63
2021/11/01 05:46:00;;;;;;;17.05;11.10;;;;;;;12.53;92.75;101092.17;1731656;80;21432;-63
2021/11/01 05:48:26;;;;;;;18.92;11.35;;;;;;;12.59;92.01;101091.48;1725549;80;21511;-65
2021/11/01 05:50:53;;;;;;;14.95;10.75;;;;;;;12.62;91.72;101090.33;1719745;80;21079;-63
2021/11/01 05:53:22;;;;;;;19.52;11.75;;;;;;;12.92;88.61;101083.38;1731852;80;20902;-64
2021/11/01 05:58:38;;;;;;;21.27;11.18;;;;;;;13.29;82.84;101088.24;1733563;80;21507;-71
2021/11/01 06:01:15;;;;;;;16.05;11.83;;;;;;;13.22;83.92;101092.07;1733687;80;21080;-70
2021/11/01 06:13:53;;;;;;;19.75;12.98;;;;;;;13.59;77.07;101098.22;1741177;80;20985;-62
2021/11/01 06:16:21;;;;;;;20.92;10.95;;;;;;;13.70;75.46;101111.36;1749280;80;22406;-71
2021/11/01 06:18:49;;;;;;;17.57;11.48;;;;;;;13.75;74.25;101107.69;1741953;80;21158;-64
2021/11/01 06:21:17;;;;;;;19.37;11.83;;;;;;;13.91;71.95;101102.76;1743232;80;21828;-64
2021/11/01 06:23:49;;;;;;;19.02;10.72;;;;;;;13.93;70.02;101106.80;1731288;80;21567;-72
2021/11/01 06:26:17;;;;;;;17.10;11.30;;;;;;;13.96;69.43;101099.88;1736373;81;21084;-67
2021/11/01 06:28:48;;;;;;;17.80;12.30;;;;;;;13.99;69.98;101102.64;1734113;80;21056;-65
2021/11/01 06:31:20;;;;;;;21.68;11.22;;;;;;;14.03;70.51;101093.41;1734258;80;21017;-67
2021/11/01 06:33:54;;;;;;;22.25;11.35;;;;;;;14.14;69.15;101096.86;1730137;80;21154;-64
2021/11/01 06:41:44;;;;;;;20.30;12.07;;;;;;;14.31;67.38;101100.05;1734269;81;22171;-65
2021/11/01 06:49:56;;;;;;;20.10;11.97;;;;;;;13.88;70.20;101100.80;1732856;80;20922;-71
2021/11/01 06:57:44;;;;;;;20.57;11.10;;;;;;;14.72;66.21;101070.08;1744602;80;21044;-68
2021/11/01 07:16:33;;;;;;;16.57;12.23;;;;;;;16.43;56.74;101050.48;1745896;80;21849;-66
2021/11/01 08:51:29;;;;;;;18.70;12.53;;;;;;;17.18;50.76;100988.61;1735126;80;21532;-66
2021/11/01 09:13:06;;;;;;;19.03;12.10;;;;;;;16.99;55.23;100975.01;1738041;80;21647;-68
2021/11/01 09:36:48;;;;;;;22.87;12.40;;;;;;;17.55;52.94;100941.41;1732716;81;22880;-67
2021/11/01 09:41:45;;;;;;;18.83;11.67;;;;;;;17.65;53.17;100929.91;1730028;81;21203;-66
2021/11/01 09:44:16;;;;;;;17.00;11.43;;;;;;;17.64;53.54;100930.09;1732216;80;21419;-68
2021/11/01 09:46:42;;;;;;;16.37;11.23;;;;;;;17.64;53.54;100930.09;1730354;81;22048;-69
2021/11/01 09:49:15;;;;;;;15.87;12.17;;;;;;;17.51;55.19;100932.31;1726839;80;21384;-68
2021/11/01 09:51:47;;;;;;;17.60;11.93;;;;;;;17.74;53.95;100931.77;1730931;81;22332;-72
2021/11/01 09:54:21;;;;;;;20.57;13.30;;;;;;;17.74;53.95;100931.77;1730848;80;23165;-68
2021/11/01 09:56:58;;;;;;;18.50;12.90;;;;;;;17.66;54.71;100925.43;1728723;81;21531;-71
2021/11/01 09:59:30;;;;;;;18.53;12.97;;;;;;;17.66;54.71;100925.43;1731389;80;21744;-69
2021/11/01 10:01:57;;;;;;;21.03;13.27;;;;;;;17.68;55.10;100924.69;1732740;81;21405;-69
2021/11/01 10:04:29;;;;;;;20.23;12.80;;;;;;;17.30;56.92;100920.77;1732389;81;22217;-67
2021/11/01 10:07:30;;;;;;;21.57;14.27;;;;;;;17.34;58.02;100915.37;1734215;81;21719;-67
2021/11/01 10:09:59;;;;;;;21.17;14.83;;;;;;;17.32;58.50;100914.28;1731612;80;22236;-68
2021/11/01 10:12:34;;;;;;;25.47;17.13;;;;;;;17.50;58.42;100920.13;1730829;81;21338;-65
2021/11/01 10:18:06;;;;;;;23.63;17.80;;;;;;;17.54;58.80;100909.98;1728656;80;21001;-66
2021/11/01 10:20:36;;;;;;;26.33;17.40;;;;;;;17.55;59.28;100915.57;1732907;81;21860;-70
2021/11/01 10:23:24;;;;;;;27.53;18.47;;;;;;;17.68;58.66;100908.88;1736682;81;22001;-69
2021/11/01 10:26:12;;;;;;;23.07;15.37;;;;;;;17.66;58.78;100906.46;1736617;81;21380;-64
2021/11/01 10:28:40;;;;;;;25.47;16.63;;;;;;;17.85;57.35;100900.77;1732433;81;21480;-65
2021/11/01 10:31:25;;;;;;;27.70;16.63;;;;;;;17.71;57.74;100890.80;1739087;80;21435;-70
2021/11/01 10:34:06;;;;;;;22.43;15.53;;;;;;;17.64;57.93;100894.50;1734344;80;21427;-66
2021/11/01 10:36:37;;;;;;;21.97;14.98;;;;;;;17.64;57.93;100894.50;1735432;80;21378;-64
2021/11/01 10:39:09;;;;;;;22.22;15.50;;;;;;;17.84;57.19;100877.23;1738554;81;21159;-69
2021/11/01 10:42:02;;;;;;;25.02;15.32;;;;;;;17.83;56.49;100879.59;1726637;81;21024;-71
2021/11/01 10:59:08;;;;;;;22.10;14.63;;;;;;;17.17;59.82;100881.63;1727599;80;21371;-69
2021/11/01 11:15:13;;;;;;;23.60;16.57;;;;;;;17.31;62.25;100856.50;1710980;81;21268;-67
2021/11/01 11:20:54;;;;;;;22.30;15.53;;;;;;;17.18;62.84;100840.28;1718902;80;22093;-68
2021/11/01 11:26:16;;;;;;;22.70;14.83;;;;;;;17.48;61.01;100849.70;1721405;80;21373;-69
2021/11/01 11:37:58;;;;;;;21.33;14.93;;;;;;;17.59;58.96;100844.27;1720684;80;21313;-68
2021/11/01 11:41:02;;;;;;;21.23;14.93;;;;;;;17.06;61.68;100842.78;1720944;80;21384;-73
2021/11/01 11:48:35;;;;;;;21.37;16.17;;;;;;;17.64;59.80;100833.87;1722140;80;21235;-65
2021/11/01 11:51:09;;;;;;;24.73;16.40;;;;;;;17.80;59.28;100828.59;1719977;80;21268;-66
2021/11/01 11:53:39;;;;;;;22.53;16.27;;;;;;;17.77;58.58;100823.73;1720900;80;21119;-69
2021/11/01 11:56:09;;;;;;;21.40;13.63;;;;;;;17.60;59.67;100828.22;1721078;80;21283;-67
2021/11/01 11:58:40;;;;;;;21.30;15.10;;;;;;;17.81;58.60;100823.63;1721058;80;21194;-71
2021/11/01 12:03:58;;;;;;;23.83;16.57;;;;;;;18.06;56.50;100807.75;1824679;77;22652;-67
2021/11/01 12:07:01;;;;;;;23.20;15.23;;;;;;;17.88;56.87;100792.70;1798374;79;20975;-71
2021/11/01 12:12:20;;;;;;;26.50;18.57;;;;;;;17.75;57.12;100805.51;1797853;79;21306;-69
2021/11/01 12:17:32;;;;;;;22.00;14.37;;;;;;;17.52;57.97;100798.17;1803048;78;21773;-68
2021/11/01 12:20:04;;;;;;;19.60;14.23;;;;;;;17.48;59.01;100798.31;1799214;79;22013;-69
2021/11/01 12:22:35;;;;;;;22.73;15.07;;;;;;;17.59;58.63;100803.40;1800064;78;22385;-67
2021/11/01 12:25:06;;;;;;;21.70;15.70;;;;;;;17.46;58.56;100813.52;1795757;79;21213;-69
2021/11/01 12:27:39;;;;;;;22.77;15.63;;;;;;;17.46;59.86;100811.72;1795762;78;21327;-64
2021/11/01 12:30:10;;;;;;;22.83;16.17;;;;;;;17.48;60.07;100814.92;1778912;78;21280;-66
2021/11/01 12:32:39;;;;;;;22.85;16.40;;;;;;;17.62;59.31;100797.19;1810363;78;21310;-69
2021/11/01 12:35:22;;;;;;;21.33;16.07;;;;;;;17.70;58.72;100798.22;1802355;79;22099;-68
2021/11/01 12:37:43;;;;;;;23.55;16.25;;;;;;;17.59;59.46;100791.02;1799965;78;21736;-67
2021/11/01 12:40:20;;;;;;;24.57;15.53;;;;;;;17.56;59.37;100785.38;1742391;80;20978;-67
2021/11/01 12:42:52;;;;;;;25.97;18.00;;;;;;;17.43;60.32;100799.48;1767047;80;21784;-73
2021/11/01 12:58:51;;;;;;;23.80;18.03;;;;;;;16.93;64.67;100817.81;1770161;80;21371;-71
2021/11/01 13:01:19;;;;;;;24.40;17.27;;;;;;;17.05;65.09;100814.83;1770913;80;21651;-66
2021/11/01 13:03:50;;;;;;;27.50;20.20;;;;;;;16.91;66.28;100814.60;1770233;80;21398;-66
2021/11/01 13:06:31;;;;;;;27.48;19.17;;;;;;;17.22;64.85;100815.12;1764912;80;21401;-66
2021/11/01 13:08:55;;;;;;;26.60;19.63;;;;;;;16.97;66.21;100807.16;1803048;78;20990;-66
2021/11/01 13:11:38;;;;;;;32.87;23.57;;;;;;;16.94;66.37;100802.34;1804564;78;21104;-65
2021/11/01 13:14:27;;;;;;;23.00;17.40;;;;;;;17.18;65.42;100808.66;1801706;78;21274;-73
2021/11/01 13:19:18;;;;;;;31.53;20.80;;;;;;;17.31;63.22;100790.11;1796713;78;21286;-74
2021/11/01 13:21:58;;;;;;;31.37;19.20;;;;;;;17.20;64.15;100791.63;1798272;78;21320;-74
2021/11/01 13:24:46;;;;;;;33.07;21.03;;;;;;;16.99;66.80;100790.65;1806159;78;21318;-63
2021/11/01 13:27:37;;;;;;;32.20;21.80;;;;;;;17.12;65.99;100777.41;1803652;78;21228;-73
2021/11/01 13:38:03;;;;;;;35.23;22.73;;;;;;;16.69;72.50;100787.23;1774829;78;21271;-66
2021/11/01 13:40:38;;;;;;;30.90;20.90;;;;;;;16.68;73.84;100783.50;1799884;78;21279;-70
2021/11/01 13:43:04;;;;;;;34.77;23.50;;;;;;;16.73;72.46;100784.98;1800175;78;21224;-67
2021/11/01 13:45:33;;;;;;;28.77;19.97;;;;;;;16.97;71.64;100787.41;1804642;78;21247;-67
2021/11/01 13:48:00;;;;;;;24.87;17.30;;;;;;;16.78;73.60;100783.38;1801465;78;21156;-66
2021/11/01 13:50:39;;;;;;;22.90;16.07;;;;;;;16.73;74.63;100783.67;1773707;79;21210;-70
2021/11/01 13:53:13;;;;;;;24.13;15.73;;;;;;;16.76;74.93;100781.97;1798730;78;21727;-66
2021/11/01 14:11:51;;;;;;;84.03;49.83;;;;;;;16.42;82.14;100754.16;1783144;79;21167;-68
2021/11/01 14:27:36;;;;;;;89.40;46.00;;;;;;;16.18;89.08;100755.68;1787964;79;21171;-72
2021/11/01 15:13:59;;;;;;;29.93;19.23;;;;;;;16.25;92.31;100721.76;1809757;78;21252;-72
2021/11/01 15:21:54;;;;;;;23.00;17.30;;;;;;;16.25;93.70;100724.87;1799404;78;21353;-70
2021/11/01 16:18:33;;;;;;;26.97;18.87;;;;;;;15.76;100.00;100707.34;1790675;79;21304;-71
2021/11/01 16:20:58;;;;;;;26.02;19.57;;;;;;;16.04;100.00;100704.94;1796668;79;21483;-72
2021/11/01 16:23:36;;;;;;;27.43;18.37;;;;;;;15.99;100.00;100696.36;1791278;79;21423;-72
2021/11/01 16:28:48;;;;;;;24.97;18.23;;;;;;;16.53;100.00;100686.40;1793049;79;21838;-71
2021/11/01 16:34:05;;;;;;;25.52;18.02;;;;;;;16.38;100.00;100685.88;1783175;79;21200;-72
2021/11/01 16:39:09;;;;;;;26.53;18.50;;;;;;;16.61;100.00;100682.19;1786287;79;21162;-71
2021/11/01 16:41:36;;;;;;;29.00;20.73;;;;;;;16.61;100.00;100691.41;1786791;79;21700;-71
2021/11/01 16:46:47;;;;;;;23.73;17.63;;;;;;;16.72;100.00;100689.41;1728642;79;21831;-69
2021/11/01 16:49:16;;;;;;;29.33;19.50;;;;;;;16.79;100.00;100680.19;1778171;79;21290;-73
2021/11/01 16:51:44;;;;;;;26.17;19.50;;;;;;;16.88;100.00;100678.09;1779092;79;21069;-70
2021/11/01 16:54:14;;;;;;;22.63;18.03;;;;;;;16.87;100.00;100668.08;1782860;79;21822;-70
2021/11/01 16:57:23;;;;;;;25.93;18.30;;;;;;;17.28;100.00;100660.14;1780851;79;21576;-73
2021/11/01 16:59:37;;;;;;;24.80;17.93;;;;;;;17.45;99.22;100674.86;1771223;79;21243;-69
2021/11/01 17:02:34;;;;;;;28.37;19.97;;;;;;;17.58;97.95;100672.11;1789370;79;21431;-72
2021/11/01 17:04:33;;;;;;;25.80;18.67;;;;;;;17.48;99.18;100669.16;1768721;78;21833;-72
2021/11/01 17:07:07;;;;;;;23.73;17.80;;;;;;;17.38;100.00;100670.97;1805848;78;22415;-70
2021/11/01 17:26:10;;;;;;;23.90;18.70;;;;;;;17.24;100.00;100657.65;1797134;78;21329;-71
2021/11/01 17:29:04;;;;;;;24.17;16.47;;;;;;;17.26;100.00;100643.73;1796977;78;21296;-74
2021/11/01 17:34:39;;;;;;;21.30;16.73;;;;;;;17.09;100.00;100647.44;1785382;79;21129;-70
2021/11/01 18:38:17;;;;;;;28.83;19.13;;;;;;;16.65;100.00;100625.47;1790342;79;21333;-71
2021/11/01 18:40:42;;;;;;;28.67;21.15;;;;;;;16.34;100.00;100617.59;1783781;79;21138;-68
2021/11/01 18:43:14;;;;;;;29.80;20.37;;;;;;;16.30;100.00;100615.38;1787694;79;21052;-69
2021/11/01 18:51:34;;;;;;;30.88;21.12;;;;;;;16.01;100.00;100611.48;1727674;82;21266;-70
2021/11/01 18:54:18;;;;;;;29.40;20.07;;;;;;;15.94;100.00;100607.27;1762319;79;20893;-70
2021/11/01 18:56:47;;;;;;;29.67;20.53;;;;;;;16.38;100.00;100604.31;1792479;79;21225;-69
2021/11/01 18:59:16;;;;;;;29.87;19.67;;;;;;;15.93;100.00;100600.41;1712396;83;21142;-70
2021/11/01 19:01:54;;;;;;;30.77;21.13;;;;;;;15.93;100.00;100600.41;1782205;79;21835;-70
2021/11/01 19:04:29;;;;;;;31.00;21.67;;;;;;;15.90;100.00;100604.77;1788395;78;21228;-71
2021/11/01 19:07:00;;;;;;;30.47;20.37;;;;;;;15.86;100.00;100618.03;1791637;78;21707;-71
2021/11/01 19:09:40;;;;;;;26.65;20.17;;;;;;;15.92;100.00;100619.84;1786134;79;21262;-71
2021/11/01 19:12:53;;;;;;;31.77;22.83;;;;;;;16.05;100.00;100627.66;1796596;79;21094;-71
2021/11/01 20:04:57;;;;;;;49.03;29.60;;;;;;;17.02;100.00;100578.22;1795847;79;21384;-70
2021/11/01 20:08:11;;;;;;;46.37;30.27;;;;;;;17.07;100.00;100577.05;1775729;79;21829;-70
2021/11/01 21:24:41;;;;;;;40.47;26.13;;;;;;;17.96;100.00;100519.45;1761985;79;21545;-73
2021/11/01 21:27:02;;;;;;;35.87;26.53;;;;;;;17.99;100.00;100518.98;1792765;79;21457;-69
2021/11/01 21:29:32;;;;;;;37.87;25.23;;;;;;;17.96;100.00;100520.77;1771845;79;21397;-73
2021/11/01 21:31:59;;;;;;;34.10;25.00;;;;;;;17.96;100.00;100520.77;1774670;79;21462;-72
2021/11/01 21:34:37;;;;;;;35.13;25.40;;;;;;;17.93;100.00;100527.80;1782929;79;21242;-71
2021/11/01 21:37:06;;;;;;;35.73;26.00;;;;;;;17.84;100.00;100526.50;1772854;79;21976;-73
2021/11/01 21:39:33;;;;;;;31.83;23.80;;;;;;;17.95;100.00;100525.21;1783196;79;21884;-72
2021/11/01 21:42:00;;;;;;;34.90;25.53;;;;;;;17.81;100.00;100520.38;1780623;79;21513;-71
2021/11/01 21:44:29;;;;;;;31.53;25.20;;;;;;;17.99;100.00;100516.34;1781685;79;21869;-73
2021/11/01 21:46:55;;;;;;;36.57;25.07;;;;;;;17.99;100.00;100516.34;1783637;79;22105;-69
2021/11/01 21:49:22;;;;;;;32.13;23.47;;;;;;;17.90;100.00;100507.16;1771268;79;21406;-74
2021/11/01 21:51:49;;;;;;;38.73;24.83;;;;;;;17.90;100.00;100507.16;1785271;79;21709;-73
2021/11/01 21:56:51;;;;;;;42.40;28.37;;;;;;;17.59;100.00;100491.02;1787044;79;21329;-72
2021/11/01 22:10:20;;;;;;;36.73;26.00;;;;;;;17.74;100.00;100484.31;1629344;86;22349;-73
2021/11/01 22:18:12;;;;;;;35.77;25.17;;;;;;;17.73;100.00;100470.85;1716250;82;21910;-73
2021/11/01 22:20:41;;;;;;;33.70;24.30;;;;;;;17.87;100.00;100461.45;1723878;81;21418;-73
2021/11/01 22:23:15;;;;;;;34.23;24.53;;;;;;;17.87;100.00;100461.45;1699527;83;21562;-73